FW6089 Weather Reports


time (UTC)temp
C
wind
direction
speed
KPH
gust
KPH
rain 1hr
cm
rain 24hr
cm
rain mn
cm
humidity
%
barometer
mb
20200229101358 15 4 0.0 3.2 0.00 0.00 0.00 62 1030.0
20200229095854 15 4 1.6 4.8 0.00 0.00 0.00 62 1030.2
20200229092911 15 304 1.6 4.8 0.00 0.00 0.00 63 1030.4
20200229085856 15 304 0.0 3.2 0.00 0.00 0.00 63 1030.9
20200229082857 14 304 1.6 3.2 0.00 0.00 0.00 64 1031.5
20200229075850 13 304 0.0 3.2 0.00 0.00 0.00 64 1031.7
20200229072906 13 304 1.6 4.8 0.00 0.00 0.00 63 1032.1
20200229065904 13 303 0.0 3.2 0.00 0.00 0.00 61 1032.4
20200229062901 13 303 0.0 3.2 0.00 0.00 0.00 60 1032.8
20200229055907 13 303 0.0 4.8 0.00 0.00 0.00 60 1033.1
20200229052909 13 303 3.2 4.8 0.00 0.00 0.00 59 1033.4
20200229045854 15 133 0.0 1.6 0.00 0.00 0.00 56 1033.4
20200229042853 15 133 1.6 4.8 0.00 0.00 0.00 55 1033.3
20200229041341 16 127 1.6 3.2 0.00 0.00 0.00 55 1033.2
20200229035839 16 127 3.2 8.0 0.00 0.00 0.00 54 1032.9
20200229032857 17 102 0.0 4.8 0.00 0.00 0.00 52 1032.6
20200229031349 17 102 1.6 9.7 0.00 0.00 0.00 52 1032.4
20200229024348 18 85 4.8 14.5 0.00 0.00 0.00 50 1032.4
20200229021543 18 90 4.8 20.9 0.00 0.00 0.00 47 1031.9
20200229012848 20 97 11.3 19.3 0.00 0.00 0.00 44 1031.0
20200229005847 21 110 14.5 25.7 0.00 0.00 0.00 40 1030.5
20200229002859 22 128 8.0 16.1 0.00 0.00 0.00 36 1030.1
20200229001346 23 154 9.7 19.3 0.00 0.00 0.00 35 1030.0
20200228234357 23 144 6.4 17.7 0.00 0.00 0.00 34 1030.0
20200228232844 24 170 6.4 16.1 0.00 0.00 0.00 34 1029.9
20200228225857 24 95 8.0 14.5 0.00 0.00 0.00 34 1029.4
20200228224358 24 100 6.4 16.1 0.00 0.00 0.00 35 1029.3
20200228221351 24 131 8.0 17.7 0.00 0.00 0.00 34 1029.4
20200228215841 25 125 11.3 22.5 0.00 0.00 0.00 34 1029.4
20200228212917 24 133 6.4 17.7 0.00 0.00 0.00 34 1029.5
20200228211356 24 149 3.2 19.3 0.00 0.00 0.00 34 1029.7
20200228205840 24 122 8.0 14.5 0.00 0.00 0.00 35 1029.9
20200228202855 24 111 8.0 16.1 0.00 0.00 0.00 35 1030.2
20200228195852 23 181 3.2 14.5 0.00 0.00 0.00 35 1031.0
20200228192857 23 126 11.3 17.7 0.00 0.00 0.00 36 1031.4
20200228191352 22 193 4.8 16.1 0.00 0.00 0.00 36 1031.9
20200228185843 22 172 6.4 16.1 0.00 0.00 0.00 37 1032.2
20200228182903 22 222 8.0 19.3 0.00 0.00 0.00 38 1032.5
20200228175843 22 146 1.6 11.3 0.00 0.00 0.00 39 1033.3
20200228172852 21 332 3.2 14.5 0.00 0.00 0.00 41 1033.8
20200228165854 20 266 1.6 8.0 0.00 0.00 0.00 43 1034.2
20200228164349 20 102 0.0 6.4 0.00 0.00 0.00 45 1034.2
20200228162840 18 244 3.2 6.4 0.00 0.00 0.00 46 1034.1
20200228155902 17 298 3.2 8.0 0.00 0.00 0.00 48 1034.3
20200228154356 17 271 3.2 6.4 0.00 0.00 0.00 49 1034.3
20200228152853 16 283 0.0 8.0 0.00 0.00 0.00 51 1033.8
20200228151352 15 312 0.0 6.4 0.00 0.00 0.00 54 1033.8
20200228144359 12 311 0.0 4.8 0.00 0.00 0.00 58 1033.2
20200228142856 11 311 1.6 6.4 0.00 0.00 0.00 58 1033.6
20200228141356 10 310 3.2 8.0 0.00 0.00 0.00 60 1033.3
20200228135845 8 341 3.2 6.4 0.00 0.00 0.00 61 1033.0
20200228132858 6 330 3.2 6.4 0.00 0.00 0.00 62 1032.7
20200228125844 7 4 3.2 6.4 0.00 0.00 0.00 62 1032.1
20200228122854 6 11 1.6 3.2 0.00 0.00 0.00 62 1031.6
20200228120203 6 11 1.6 3.2 0.00 0.00 0.00 61 1031.2
20200228114356 6 11 1.6 4.8 0.00 0.00 0.00 60 1031.1
20200228111357 6 11 1.6 4.8 0.00 0.00 0.00 60 1031.0
20200228105845 6 11 1.6 4.8 0.00 0.00 0.00 59 1030.9
20200228102910 7 11 0.0 1.6 0.00 0.00 0.00 58 1030.8